Houlton, ME

5:28 AM EST on January 27, 2015 (GMT -0500)
Houlton International | Change Station
CLOSE
Current Station
Airport
Location: Houlton,
Elevation: 492 ft
Nearby Weather Stations
Active Advisory: Winter Storm Warning

Elev 492 ft 46.12 °N, 67.79 °W | Updated 35 minutes ago

Overcast
Overcast
5 °F
Feels Like -14 °F
N
16
Wind Variable Wind from NE
Gusts 28 mph

Today
High -- | Low -- °F
--% Chance of Precip.
Yesterday
High -- | Low -- °F
Precip. -- in
6:59 AM 4:28 PM
First Quarter, 53% visible
Pressure 30.17 in
Visibility 10.0 miles
Clouds Overcast 9500 ft
Windchill -14 °F
Dew Point -9 °F
Humidity 52%
Rainfall 0.00 in
Snow Depth Not available.
UV 0 out of 12
Pollen .10 out of 12
Air Quality Not available.
Flu Activity Not available.
METAR KHUL 270953Z AUTO 05014G24KT 10SM OVC095 M15/M23 A3012 RMK AO2 SLP215 T11501228

More Conditions Fewer Conditions

Pressure 30.17 in
Visibility 10.0 miles
Clouds Overcast 9500 ft
Windchill -14 °F
Dew Point -9 °F
Humidity 52%
Rainfall 0.00 in
Snow Depth Not available.
UV 0 out of 12
Pollen .10 out of 12
Air Quality Not available.
Flu Activity Not available.
METAR KHUL 270953Z AUTO 05014G24KT 10SM OVC095 M15/M23 A3012 RMK AO2 SLP215 T11501228

More Conditions Fewer Conditions

10-Day Weather Forecast

Almanac

Astronomy

Jan. 27, 2015 Rise Set
Actual Time
Civil Twilight
Nautical Twilight
Astronomical Twilight
Moon
Length of Visible Light
Length of Day
Tomorrow will be .
, % of the Moon is Illuminated

Today's Extremes

State Highs State Lows

Community

WunderPhotos

Upload Photos

1,790,562 photos uploaded!

WunderBlogs® & News

Nearby

Air Quality

  Air Quality AQ Index Pollutant
Not available.

Snow Depth

Station Depth Elevation

Earthquake Activity

City Distance Mag. Time & Date
Minimum magnitude displayed is 2.5.

Coastal Water Temperatures

Place Temperature

Nearby Weather Stations